TAF Italia - 19 Feb 2018 - 0157 UTC - RocketRoute WX - rrwx.com
LIEA 182300Z 1900/1924 VRB06KT 9999 SCT030 LIBD 182300Z 1900/1924 VRB06KT 7000 SCT030 TEMPO 1900/1912 RA LIME 182300Z 1900/1924 VRB05KT 6000 BKN020 LIPE 182300Z 1900/1924 VRB05KT 7000 BKN020 TEMPO 1900/1909 3000 RA LIRN 182300Z 1900/1924 VRB05KT 8000 SCT020 BKN040 TEMPO 1900/1915 4000 SHRA TEMPO 1915/1924 RA LICC 182300Z 1900/1924 VRB06KT 9999 SCT040 TEMPO 1912/1918 RA LIRA 182300Z 1900/1924 VRB05KT 8000 SCT030 TEMPO 1900/1906 3000 BR TEMPO 1912/1924 4000 RA LIBC 181100Z 1812/1912 20012KT 9999 FEW040 BECMG 1818/1820 VRB05KT TEMPO 1822/1906 RA BECMG 1902/1904 36010KT LIEE 182300Z 1900/1924 32010KT 9999 SCT030 LIPY 182300Z 1900/1924 VRB06KT 6000 BKN012 TEMPO 1900/1915 2000 RA LIRF 182300Z 1900/2006 VRB06KT 8000 SCT030 TEMPO 1900/1906 2000 BCFG TEMPO 1912/1918 4000 RA LIMJ 182300Z 1900/1924 04008KT 9999 SCT050 TEMPO 1909/1916 01015G25KT LICD 181700Z 1818/1918 24007KT 9999 SCT020 TEMPO 1818/1824 RA BECMG 1821/1823 34018G28KT LIML 182300Z 1900/1924 VRB05KT 6000 SCT020 BKN050 LIMC 182300Z 1900/2006 VRB05KT 6000 BKN012 LIEO 182300Z 1900/1924 28010KT 9999 SCT030 BECMG 1917/1919 VRB04KT LICJ 182300Z 1900/1924 29010KT 9999 SCT025 TEMPO 1900/1906 RA LIBP 182300Z 1900/1924 VRB06KT 7000 SCT025 BKN050 TEMPO 1900/1915 3000 RA LIRP 182300Z 1900/1924 09010KT 9999 SCT025 SCT060 TEMPO 1818/1906 5000 RA LICR 181700Z 1818/1918 VRB05KT 9999 SCT040 TEMPO 1818/1821 RA LIMF 182300Z 1900/1924 VRB05KT 4000 BR BKN020 LIRU   LIPZ 182300Z 1900/2006 06015KT 9999 SCT040 BECMG 1906/1908 VRB06KT

RocketRoute WX - rrwx.com weather for pilots